createdAt,value
2023-03-04T00:02:51.095Z,75.21
2023-03-04T00:05:54.374Z,75.23
2023-03-04T00:08:57.652Z,75.27
2023-03-04T00:12:00.885Z,75.30
2023-03-04T00:15:04.583Z,75.39
2023-03-04T00:18:07.809Z,75.45
2023-03-04T00:21:11.003Z,75.46
2023-03-04T00:24:14.197Z,75.50
2023-03-04T00:27:17.421Z,75.55
2023-03-04T00:30:20.701Z,75.51
2023-03-04T00:33:24.871Z,75.48
2023-03-04T00:36:28.067Z,75.50
2023-03-04T00:39:31.722Z,75.54
2023-03-04T00:42:34.927Z,75.58
2023-03-04T00:45:38.219Z,75.61
2023-03-04T00:48:41.490Z,75.65
2023-03-04T00:51:44.812Z,75.70
2023-03-04T00:54:48.011Z,75.74
2023-03-04T00:57:51.175Z,75.69
2023-03-04T01:00:54.501Z,75.72
2023-03-04T01:03:57.785Z,75.76
2023-03-04T01:07:01.320Z,75.71
2023-03-04T01:10:07.139Z,75.70
2023-03-04T01:13:10.350Z,75.73
2023-03-04T01:16:13.849Z,75.76
2023-03-04T01:19:17.408Z,75.73
2023-03-04T01:22:20.872Z,75.76
2023-03-04T01:25:24.356Z,75.79
2023-03-04T01:28:28.675Z,75.79
2023-03-04T01:31:31.873Z,75.80
2023-03-04T01:34:36.268Z,75.74
2023-03-04T01:37:40.762Z,75.74
2023-03-04T01:40:44.279Z,75.72
2023-03-04T01:43:47.857Z,75.63
2023-03-04T01:46:53.801Z,75.62
2023-03-04T01:49:58.761Z,75.76
2023-03-04T01:53:03.438Z,75.80
2023-03-04T01:56:15.707Z,75.89
2023-03-04T01:59:25.816Z,75.94
2023-03-04T02:02:29.052Z,75.97
2023-03-04T02:05:32.393Z,75.95
2023-03-04T02:08:35.863Z,75.97
2023-03-04T02:11:40.099Z,75.98
2023-03-04T02:14:43.353Z,76.03
2023-03-04T02:17:46.833Z,76.07
2023-03-04T02:20:53.052Z,76.05
2023-03-04T02:24:15.468Z,76.06
2023-03-04T02:27:21.669Z,76.06
2023-03-04T02:30:25.715Z,75.92
2023-03-04T02:33:29.047Z,76.07
2023-03-04T02:36:32.878Z,76.13
2023-03-04T02:39:41.222Z,76.14
2023-03-04T02:42:45.943Z,76.19
2023-03-04T02:45:51.213Z,76.18
2023-03-04T02:48:54.742Z,76.14
2023-03-04T02:52:03.600Z,76.11
2023-03-04T02:55:09.537Z,76.21
2023-03-04T02:58:13.610Z,76.24
2023-03-04T03:01:17.215Z,76.26
2023-03-04T03:04:23.265Z,76.22
2023-03-04T03:07:28.036Z,76.20
2023-03-04T03:10:31.986Z,76.20
2023-03-04T03:13:35.655Z,76.18
2023-03-04T03:16:39.032Z,76.01
2023-03-04T03:19:42.447Z,76.06
2023-03-04T03:22:46.616Z,76.09
2023-03-04T03:25:49.783Z,76.11
2023-03-04T03:28:53.035Z,76.11
2023-03-04T03:31:57.773Z,76.15
2023-03-04T03:35:01.150Z,76.21
2023-03-04T03:38:05.061Z,76.25
2023-03-04T03:41:08.245Z,76.22
2023-03-04T03:44:11.479Z,76.29
2023-03-04T03:47:14.708Z,76.28
2023-03-04T03:50:17.987Z,76.35
2023-03-04T03:53:21.260Z,76.27
2023-03-04T03:56:24.473Z,76.25
2023-03-04T03:59:27.820Z,76.30
2023-03-04T04:02:31.313Z,76.33
2023-03-04T04:05:34.592Z,76.38
2023-03-04T04:08:37.805Z,76.42
2023-03-04T04:11:41.020Z,76.42
2023-03-04T04:14:44.562Z,76.50
2023-03-04T04:17:47.700Z,76.54
2023-03-04T04:20:52.428Z,76.60
2023-03-04T04:23:55.628Z,76.58
2023-03-04T04:26:59.020Z,76.56
2023-03-04T04:30:02.523Z,76.57
2023-03-04T04:33:05.978Z,76.55
2023-03-04T04:36:14.637Z,76.50
2023-03-04T04:39:18.347Z,76.53
2023-03-04T04:42:22.597Z,76.56
2023-03-04T04:45:25.945Z,76.58
2023-03-04T04:48:29.117Z,76.53
2023-03-04T04:51:33.707Z,76.53
2023-03-04T04:54:36.956Z,76.51
2023-03-04T04:57:40.152Z,76.61
2023-03-04T05:00:43.439Z,76.57
2023-03-04T05:03:46.771Z,76.57
2023-03-04T05:06:50.008Z,76.55
2023-03-04T05:09:53.258Z,76.54
2023-03-04T05:12:57.793Z,76.61
2023-03-04T05:16:02.002Z,76.58
2023-03-04T05:19:05.345Z,76.59
2023-03-04T05:22:09.084Z,76.57
2023-03-04T05:25:12.342Z,76.59
2023-03-04T05:28:16.409Z,76.59
2023-03-04T05:31:19.642Z,76.52
2023-03-04T05:34:22.903Z,76.45
2023-03-04T05:37:26.100Z,76.42
2023-03-04T05:40:29.247Z,76.36
2023-03-04T05:43:35.649Z,76.32
2023-03-04T05:46:38.908Z,76.25
2023-03-04T05:49:42.746Z,76.16
2023-03-04T05:52:46.244Z,76.04
2023-03-04T05:55:49.549Z,75.96
2023-03-04T05:58:52.754Z,75.91
2023-03-04T06:01:55.930Z,75.79
2023-03-04T06:04:59.148Z,75.71
2023-03-04T06:08:02.329Z,75.55
2023-03-04T06:11:06.471Z,75.47
2023-03-04T06:14:09.849Z,75.40
2023-03-04T06:17:13.220Z,75.36
2023-03-04T06:20:16.892Z,75.35
2023-03-04T06:23:20.106Z,75.27
2023-03-04T06:26:23.389Z,75.20
2023-03-04T06:29:27.226Z,75.13
2023-03-04T06:32:30.589Z,75.07
2023-03-04T06:35:33.853Z,74.96
2023-03-04T06:38:37.090Z,74.91
2023-03-04T06:41:40.812Z,74.88
2023-03-04T06:44:44.089Z,74.85
2023-03-04T06:47:47.506Z,74.81
2023-03-04T06:50:50.721Z,74.73
2023-03-04T06:53:54.150Z,74.71
2023-03-04T06:56:57.406Z,74.62
2023-03-04T07:00:00.742Z,74.62
2023-03-04T07:03:03.991Z,74.61
2023-03-04T07:06:07.616Z,74.65
2023-03-04T07:09:10.835Z,74.57
2023-03-04T07:12:14.179Z,74.54
2023-03-04T07:15:17.473Z,74.46
2023-03-04T07:18:20.842Z,74.39
2023-03-04T07:21:24.307Z,74.31
2023-03-04T07:24:27.829Z,74.21
2023-03-04T07:27:31.119Z,74.12
2023-03-04T07:30:34.483Z,74.01
2023-03-04T07:33:37.893Z,73.97
2023-03-04T07:36:41.925Z,73.98
2023-03-04T07:39:45.241Z,73.97
2023-03-04T07:42:52.592Z,73.92
2023-03-04T07:46:01.756Z,73.84
2023-03-04T07:49:05.349Z,73.80
2023-03-04T07:52:09.564Z,73.78
2023-03-04T07:55:15.537Z,73.71
2023-03-04T07:58:20.017Z,73.74
2023-03-04T08:01:37.716Z,73.72
2023-03-04T08:04:41.195Z,73.68
2023-03-04T08:07:44.575Z,73.67
2023-03-04T08:10:47.860Z,73.65
2023-03-04T08:13:54.191Z,73.65
2023-03-04T08:16:57.612Z,73.59
2023-03-04T08:20:00.927Z,73.54
2023-03-04T08:23:04.643Z,73.51
2023-03-04T08:26:13.841Z,73.48
2023-03-04T08:29:21.240Z,73.46
2023-03-04T08:32:24.853Z,73.43
2023-03-04T08:35:28.213Z,73.43
2023-03-04T08:38:32.177Z,73.39
2023-03-04T08:41:35.562Z,73.35
2023-03-04T08:44:38.802Z,73.31
2023-03-04T08:47:42.570Z,73.25
2023-03-04T08:50:47.037Z,73.17
2023-03-04T08:53:50.314Z,73.14
2023-03-04T08:56:53.741Z,73.08
2023-03-04T08:59:56.997Z,73.06
2023-03-04T09:03:00.289Z,73.03
2023-03-04T09:06:04.740Z,72.99
2023-03-04T09:09:08.115Z,72.95
2023-03-04T09:12:11.508Z,73.65
2023-03-04T09:15:15.210Z,73.68
2023-03-04T09:18:19.964Z,73.42
2023-03-04T09:21:23.314Z,73.20
2023-03-04T09:24:26.938Z,73.05
2023-03-04T09:27:30.337Z,72.98
2023-03-04T09:30:35.059Z,72.92
2023-03-04T09:33:39.019Z,72.91
2023-03-04T09:36:42.283Z,72.92
2023-03-04T09:39:45.824Z,72.96
2023-03-04T09:42:52.925Z,72.98
2023-03-04T09:46:01.697Z,72.97
2023-03-04T09:49:07.277Z,72.99
2023-03-04T09:52:28.421Z,73.00
2023-03-04T09:55:36.024Z,73.12
2023-03-04T09:58:50.314Z,73.16
2023-03-04T10:01:59.729Z,73.24
2023-03-04T10:05:06.072Z,73.26
2023-03-04T10:08:35.086Z,73.28
2023-03-04T10:11:59.657Z,73.39
2023-03-04T10:15:06.444Z,73.38
2023-03-04T10:18:21.157Z,73.39
2023-03-04T10:21:36.231Z,73.46
2023-03-04T10:24:39.481Z,73.51
2023-03-04T10:27:48.689Z,73.51
2023-03-04T10:31:16.782Z,74.06
2023-03-04T10:34:19.952Z,75.28
2023-03-04T10:37:23.361Z,74.95
2023-03-04T10:40:26.630Z,74.51
2023-03-04T10:43:30.021Z,74.31
2023-03-04T10:46:33.256Z,74.19
2023-03-04T10:49:51.941Z,74.07
2023-03-04T10:52:56.918Z,74.00
2023-03-04T10:56:00.511Z,74.01
2023-03-04T10:59:25.368Z,73.92
2023-03-04T11:02:36.635Z,73.96
2023-03-04T11:05:39.965Z,73.98
2023-03-04T11:08:43.957Z,73.97
2023-03-04T11:11:47.262Z,73.99
2023-03-04T11:14:52.548Z,74.05
2023-03-04T11:18:10.709Z,74.09
2023-03-04T11:21:19.914Z,74.12
2023-03-04T11:24:29.543Z,74.13
2023-03-04T11:27:48.026Z,74.16
2023-03-04T11:31:23.053Z,74.21
2023-03-04T11:34:55.140Z,74.27
2023-03-04T11:38:32.727Z,74.31
2023-03-04T11:41:47.729Z,74.31
2023-03-04T11:44:51.981Z,74.34
2023-03-04T11:47:57.965Z,74.32
2023-03-04T11:51:14.029Z,74.37
2023-03-04T11:54:41.480Z,74.44
2023-03-04T11:58:02.878Z,74.42
2023-03-04T12:01:15.322Z,74.38
2023-03-04T12:04:40.117Z,74.36
2023-03-04T12:07:47.658Z,74.36
2023-03-04T12:11:04.275Z,74.33
2023-03-04T12:14:21.596Z,74.29
2023-03-04T12:17:50.346Z,74.27
2023-03-04T12:21:22.851Z,74.28
2023-03-04T12:24:44.695Z,74.21
2023-03-04T12:27:58.482Z,74.23
2023-03-04T12:31:18.244Z,74.07
2023-03-04T12:34:25.278Z,74.07
2023-03-04T12:37:45.139Z,74.09
2023-03-04T12:40:57.344Z,74.06
2023-03-04T12:44:21.784Z,74.00
2023-03-04T12:47:52.467Z,74.03
2023-03-04T12:50:55.581Z,74.04
2023-03-04T12:54:03.151Z,74.10
2023-03-04T12:57:17.932Z,74.12
2023-03-04T13:00:34.922Z,74.11
2023-03-04T13:03:56.588Z,74.53
2023-03-04T13:07:14.848Z,74.42
2023-03-04T13:10:22.670Z,74.35
2023-03-04T13:13:39.766Z,74.34
2023-03-04T13:16:59.029Z,74.34
2023-03-04T13:20:20.889Z,74.35
2023-03-04T13:23:29.321Z,74.39
2023-03-04T13:26:36.644Z,74.43
2023-03-04T13:29:39.894Z,74.45
2023-03-04T13:32:44.347Z,74.49
2023-03-04T13:35:50.700Z,74.47
2023-03-04T13:39:03.987Z,74.49
2023-03-04T13:42:44.200Z,74.51
2023-03-04T13:45:47.533Z,74.55
2023-03-04T13:48:50.904Z,74.54
2023-03-04T13:51:55.549Z,74.57
2023-03-04T13:55:35.577Z,74.64
2023-03-04T13:58:39.892Z,74.68
2023-03-04T14:01:43.159Z,74.68
2023-03-04T14:04:56.820Z,74.63
2023-03-04T14:08:21.216Z,74.69
2023-03-04T14:11:30.079Z,74.74
2023-03-04T14:14:45.148Z,74.74
2023-03-04T14:17:53.238Z,74.79
2023-03-04T14:20:59.457Z,74.83
2023-03-04T14:24:12.611Z,74.86
2023-03-04T14:27:16.108Z,74.88
2023-03-04T14:30:41.548Z,74.86
2023-03-04T14:33:48.992Z,74.85
2023-03-04T14:36:53.469Z,74.82
2023-03-04T14:39:58.742Z,74.81
2023-03-04T14:43:08.850Z,74.75
2023-03-04T14:46:15.747Z,74.77
2023-03-04T14:49:19.369Z,74.71
2023-03-04T14:52:39.138Z,74.68
2023-03-04T14:56:02.120Z,74.66
2023-03-04T14:59:05.490Z,74.62
2023-03-04T15:02:31.053Z,74.57
2023-03-04T15:05:36.628Z,74.49
2023-03-04T15:08:41.061Z,74.45
2023-03-04T15:11:44.506Z,74.32
2023-03-04T15:14:57.418Z,74.23
2023-03-04T15:18:03.196Z,74.14
2023-03-04T15:21:40.294Z,74.05
2023-03-04T15:24:43.700Z,73.96
2023-03-04T15:27:48.229Z,73.86
2023-03-04T15:30:51.952Z,73.80
2023-03-04T15:33:55.138Z,73.74
2023-03-04T15:37:00.234Z,73.69
2023-03-04T15:40:12.870Z,73.66
2023-03-04T15:43:21.016Z,73.60
2023-03-04T15:46:24.425Z,73.56
2023-03-04T15:49:29.824Z,73.55
2023-03-04T15:52:33.622Z,73.54
2023-03-04T15:55:37.216Z,73.55
2023-03-04T15:58:40.607Z,73.54
2023-03-04T16:01:43.988Z,73.61
2023-03-04T16:04:47.317Z,73.65
2023-03-04T16:07:52.550Z,73.66
2023-03-04T16:10:55.964Z,73.68
2023-03-04T16:13:59.130Z,73.70
2023-03-04T16:17:02.385Z,73.75
2023-03-04T16:20:06.179Z,73.74
2023-03-04T16:23:15.268Z,73.78
2023-03-04T16:26:23.866Z,73.81
2023-03-04T16:29:28.722Z,73.83
2023-03-04T16:32:33.906Z,73.87
2023-03-04T16:35:39.808Z,73.92
2023-03-04T16:38:43.336Z,73.94
2023-03-04T16:41:46.656Z,73.99
2023-03-04T16:44:50.191Z,74.04
2023-03-04T16:47:54.000Z,74.04
2023-03-04T16:51:00.563Z,74.09
2023-03-04T16:54:03.916Z,74.11
2023-03-04T16:57:07.204Z,74.11
2023-03-04T17:00:12.027Z,74.17
2023-03-04T17:03:15.543Z,74.24
2023-03-04T17:06:20.853Z,74.30
2023-03-04T17:09:24.095Z,74.45
2023-03-04T17:12:27.928Z,74.53
2023-03-04T17:15:32.412Z,74.65
2023-03-04T17:18:35.902Z,74.72
2023-03-04T17:21:39.240Z,74.76
2023-03-04T17:24:42.833Z,74.85
2023-03-04T17:27:46.425Z,74.88
2023-03-04T17:30:49.875Z,74.94
2023-03-04T17:33:53.186Z,75.07
2023-03-04T17:36:56.496Z,75.18
2023-03-04T17:39:59.792Z,75.34
2023-03-04T17:43:03.742Z,75.46
2023-03-04T17:46:11.000Z,75.57
2023-03-04T17:49:15.454Z,75.67
2023-03-04T17:52:19.296Z,75.74
2023-03-04T17:55:22.526Z,75.76
2023-03-04T17:58:26.761Z,75.79
2023-03-04T18:01:30.412Z,75.79
2023-03-04T18:04:35.024Z,75.78
2023-03-04T18:07:38.430Z,75.74
2023-03-04T18:10:41.729Z,75.78
2023-03-04T18:13:45.183Z,75.82
2023-03-04T18:16:48.436Z,75.84
2023-03-04T18:19:51.679Z,75.89
2023-03-04T18:22:56.632Z,75.94
2023-03-04T18:26:00.329Z,76.02
2023-03-04T18:29:04.143Z,76.02
2023-03-04T18:32:07.768Z,76.09
2023-03-04T18:35:11.767Z,76.15
2023-03-04T18:38:15.300Z,76.20
2023-03-04T18:41:18.622Z,76.30
2023-03-04T18:44:21.862Z,76.37
2023-03-04T18:47:25.947Z,76.45
2023-03-04T18:50:29.305Z,76.52
2023-03-04T18:53:32.560Z,76.64
2023-03-04T18:56:43.038Z,76.72
2023-03-04T19:00:04.667Z,76.83
2023-03-04T19:03:12.742Z,76.92
2023-03-04T19:06:16.402Z,76.89
2023-03-04T19:09:19.828Z,76.95
2023-03-04T19:12:23.296Z,76.99
2023-03-04T19:15:26.850Z,77.05
2023-03-04T19:18:30.106Z,77.08
2023-03-04T19:21:38.342Z,77.15
2023-03-04T19:24:41.540Z,77.20
2023-03-04T19:27:44.760Z,77.20
2023-03-04T19:30:48.098Z,77.24
2023-03-04T19:33:51.476Z,77.17
2023-03-04T19:36:54.750Z,77.03
2023-03-04T19:39:58.385Z,77.13
2023-03-04T19:43:01.685Z,77.19
2023-03-04T19:46:07.408Z,77.21
2023-03-04T19:49:10.723Z,77.26
2023-03-04T19:52:13.938Z,77.35
2023-03-04T19:55:17.248Z,77.39
2023-03-04T19:58:21.714Z,77.35
2023-03-04T20:01:28.396Z,77.29
2023-03-04T20:04:32.148Z,77.34
2023-03-04T20:07:35.460Z,77.32
2023-03-04T20:10:39.076Z,77.22
2023-03-04T20:13:42.261Z,77.22
2023-03-04T20:16:45.520Z,77.18
2023-03-04T20:19:48.772Z,77.35
2023-03-04T20:22:52.024Z,77.41
2023-03-04T20:25:55.863Z,77.38
2023-03-04T20:29:00.018Z,77.40
2023-03-04T20:32:03.799Z,77.44
2023-03-04T20:35:11.441Z,77.43
2023-03-04T20:38:15.088Z,77.46
2023-03-04T20:41:18.513Z,77.37
2023-03-04T20:44:21.742Z,77.23
2023-03-04T20:47:24.957Z,76.91
2023-03-04T20:50:28.735Z,76.70
2023-03-04T20:53:31.961Z,76.48
2023-03-04T20:56:36.457Z,76.30
2023-03-04T20:59:40.322Z,76.14
2023-03-04T21:02:43.510Z,76.06
2023-03-04T21:05:46.664Z,76.00
2023-03-04T21:08:49.913Z,75.87
2023-03-04T21:11:53.422Z,75.80
2023-03-04T21:14:56.813Z,75.75
2023-03-04T21:18:00.037Z,75.72
2023-03-04T21:21:19.953Z,75.70
2023-03-04T21:24:26.152Z,75.68
2023-03-04T21:27:29.452Z,75.66
2023-03-04T21:30:32.969Z,75.67
2023-03-04T21:33:37.082Z,75.68
2023-03-04T21:36:40.437Z,75.66
2023-03-04T21:42:51.951Z,75.69
2023-03-04T21:45:57.077Z,75.67
2023-03-04T21:49:01.481Z,75.67
2023-03-04T21:55:00.719Z,75.66
2023-03-04T21:58:04.003Z,75.68
2023-03-04T22:01:16.383Z,75.69
2023-03-04T22:04:19.561Z,75.72
2023-03-04T22:07:22.778Z,75.74
2023-03-04T22:10:26.101Z,75.79
2023-03-04T22:13:29.322Z,75.85
2023-03-04T22:16:37.523Z,75.87
2023-03-04T22:19:43.162Z,75.90
2023-03-04T22:22:46.376Z,75.90
2023-03-04T22:25:49.604Z,75.91
2023-03-04T22:28:52.843Z,75.92
2023-03-04T22:31:56.176Z,75.89
2023-03-04T22:34:59.466Z,75.93
2023-03-04T22:38:02.722Z,75.94
2023-03-04T22:41:12.525Z,75.97
2023-03-04T22:44:15.984Z,76.00
2023-03-04T22:47:19.270Z,75.97
2023-03-04T22:50:23.145Z,75.98
2023-03-04T22:53:26.486Z,75.97
2023-03-04T22:56:29.826Z,76.01
2023-03-04T22:59:33.115Z,76.02
2023-03-04T23:02:36.824Z,75.98
2023-03-04T23:05:40.544Z,75.91
2023-03-04T23:09:05.081Z,75.82
2023-03-04T23:12:08.790Z,75.66
2023-03-04T23:15:17.669Z,75.48
2023-03-04T23:18:20.967Z,75.32
2023-03-04T23:21:25.606Z,75.22
2023-03-04T23:24:31.684Z,75.17
2023-03-04T23:27:34.980Z,75.08
2023-03-04T23:30:38.211Z,75.05
2023-03-04T23:33:46.578Z,74.98
2023-03-04T23:36:49.835Z,74.90
2023-03-04T23:39:53.123Z,74.88
2023-03-04T23:42:56.430Z,74.81
2023-03-04T23:45:59.684Z,74.78
2023-03-04T23:49:04.282Z,74.72
2023-03-04T23:52:07.627Z,74.62
2023-03-04T23:55:19.492Z,74.51
2023-03-04T23:58:22.786Z,74.43
